sensor_id;sensor_type;location;lat;lon;timestamp;pressure;altitude;pressure_sealevel;temperature;humidity
65897;BME280;52677;50.898;10.854;2023-06-26T00:00:34;98519.53;;;16.60;100.00
65897;BME280;52677;50.898;10.854;2023-06-26T00:02:34;98516.41;;;16.54;100.00
65897;BME280;52677;50.898;10.854;2023-06-26T00:04:34;98512.09;;;16.50;100.00
65897;BME280;52677;50.898;10.854;2023-06-26T00:06:37;98510.88;;;16.51;100.00
65897;BME280;52677;50.898;10.854;2023-06-26T00:08:38;98510.50;;;16.49;100.00
65897;BME280;52677;50.898;10.854;2023-06-26T00:10:38;98506.53;;;16.46;100.00
65897;BME280;52677;50.898;10.854;2023-06-26T00:12:39;98503.41;;;16.41;100.00
65897;BME280;52677;50.898;10.854;2023-06-26T00:14:39;98510.66;;;16.35;100.00
65897;BME280;52677;50.898;10.854;2023-06-26T00:16:39;98503.53;;;16.30;100.00
65897;BME280;52677;50.898;10.854;2023-06-26T00:18:40;98507.94;;;16.27;100.00
65897;BME280;52677;50.898;10.854;2023-06-26T00:20:40;98507.22;;;16.23;100.00
65897;BME280;52677;50.898;10.854;2023-06-26T00:22:40;98514.78;;;16.23;100.00
65897;BME280;52677;50.898;10.854;2023-06-26T00:24:41;98506.06;;;16.17;100.00
65897;BME280;52677;50.898;10.854;2023-06-26T00:26:41;98507.28;;;16.16;100.00
65897;BME280;52677;50.898;10.854;2023-06-26T00:28:41;98508.94;;;16.10;100.00
65897;BME280;52677;50.898;10.854;2023-06-26T00:30:42;98499.41;;;16.04;100.00
65897;BME280;52677;50.898;10.854;2023-06-26T00:32:42;98507.78;;;16.04;100.00
65897;BME280;52677;50.898;10.854;2023-06-26T00:34:42;98500.19;;;16.05;100.00
65897;BME280;52677;50.898;10.854;2023-06-26T00:36:43;98497.88;;;15.99;100.00
65897;BME280;52677;50.898;10.854;2023-06-26T00:38:43;98497.09;;;15.99;100.00
65897;BME280;52677;50.898;10.854;2023-06-26T00:40:43;98497.91;;;15.96;100.00
65897;BME280;52677;50.898;10.854;2023-06-26T00:42:44;98499.16;;;15.88;100.00
65897;BME280;52677;50.898;10.854;2023-06-26T00:44:44;98498.84;;;15.82;100.00
65897;BME280;52677;50.898;10.854;2023-06-26T00:46:45;98501.22;;;15.80;100.00
65897;BME280;52677;50.898;10.854;2023-06-26T00:48:47;98496.13;;;15.75;100.00
65897;BME280;52677;50.898;10.854;2023-06-26T00:50:48;98501.72;;;15.71;100.00
65897;BME280;52677;50.898;10.854;2023-06-26T00:52:48;98497.31;;;15.74;100.00
65897;BME280;52677;50.898;10.854;2023-06-26T00:54:49;98492.97;;;15.69;100.00
65897;BME280;52677;50.898;10.854;2023-06-26T00:56:51;98497.41;;;15.63;100.00
65897;BME280;52677;50.898;10.854;2023-06-26T00:58:51;98489.84;;;15.64;100.00
65897;BME280;52677;50.898;10.854;2023-06-26T01:00:52;98490.66;;;15.61;100.00
65897;BME280;52677;50.898;10.854;2023-06-26T01:02:52;98483.91;;;15.55;100.00
65897;BME280;52677;50.898;10.854;2023-06-26T01:04:53;98482.34;;;15.50;100.00
65897;BME280;52677;50.898;10.854;2023-06-26T01:06:53;98482.78;;;15.45;100.00
65897;BME280;52677;50.898;10.854;2023-06-26T01:08:55;98483.63;;;15.42;100.00
65897;BME280;52677;50.898;10.854;2023-06-26T01:10:55;98480.47;;;15.36;100.00
65897;BME280;52677;50.898;10.854;2023-06-26T01:12:56;98479.66;;;15.36;100.00
65897;BME280;52677;50.898;10.854;2023-06-26T01:14:57;98477.25;;;15.38;100.00
65897;BME280;52677;50.898;10.854;2023-06-26T01:17:00;98473.34;;;15.32;100.00
65897;BME280;52677;50.898;10.854;2023-06-26T01:19:01;98471.78;;;15.27;100.00
65897;BME280;52677;50.898;10.854;2023-06-26T01:21:03;98476.94;;;15.29;100.00
65897;BME280;52677;50.898;10.854;2023-06-26T01:23:24;98476.19;;;15.21;100.00
65897;BME280;52677;50.898;10.854;2023-06-26T01:25:35;98472.25;;;15.18;100.00
65897;BME280;52677;50.898;10.854;2023-06-26T01:27:39;98466.69;;;15.15;100.00
65897;BME280;52677;50.898;10.854;2023-06-26T01:29:40;98471.91;;;15.09;100.00
65897;BME280;52677;50.898;10.854;2023-06-26T01:31:41;98471.53;;;15.07;100.00
65897;BME280;52677;50.898;10.854;2023-06-26T01:33:43;98471.16;;;15.02;100.00
65897;BME280;52677;50.898;10.854;2023-06-26T01:35:43;98464.41;;;14.96;100.00
65897;BME280;52677;50.898;10.854;2023-06-26T01:37:44;98464.00;;;14.97;100.00
65897;BME280;52677;50.898;10.854;2023-06-26T01:39:44;98462.84;;;14.98;100.00
65897;BME280;52677;50.898;10.854;2023-06-26T01:41:45;98458.41;;;15.04;100.00
65897;BME280;52677;50.898;10.854;2023-06-26T01:44:28;98457.22;;;15.02;100.00
65897;BME280;52677;50.898;10.854;2023-06-26T01:46:42;98454.84;;;15.00;100.00
65897;BME280;52677;50.898;10.854;2023-06-26T01:48:55;98456.47;;;14.98;100.00
65897;BME280;52677;50.898;10.854;2023-06-26T01:50:59;98452.94;;;14.90;100.00
65897;BME280;52677;50.898;10.854;2023-06-26T01:53:10;98447.75;;;14.88;100.00
65897;BME280;52677;50.898;10.854;2023-06-26T01:55:20;98446.56;;;14.86;100.00
65897;BME280;52677;50.898;10.854;2023-06-26T01:57:21;98445.03;;;14.81;100.00
65897;BME280;52677;50.898;10.854;2023-06-26T01:59:23;98451.00;;;14.76;100.00
65897;BME280;52677;50.898;10.854;2023-06-26T02:01:25;98452.63;;;14.70;100.00
65897;BME280;52677;50.898;10.854;2023-06-26T02:03:26;98442.28;;;14.71;100.00
65897;BME280;52677;50.898;10.854;2023-06-26T02:05:26;98442.28;;;14.74;100.00
65897;BME280;52677;50.898;10.854;2023-06-26T02:07:26;98443.06;;;14.71;100.00
65897;BME280;52677;50.898;10.854;2023-06-26T02:09:27;98450.63;;;14.71;100.00
65897;BME280;52677;50.898;10.854;2023-06-26T02:11:27;98445.91;;;14.68;100.00
65897;BME280;52677;50.898;10.854;2023-06-26T02:13:27;98446.34;;;14.59;100.00
65897;BME280;52677;50.898;10.854;2023-06-26T02:15:28;98452.31;;;14.54;100.00
65897;BME280;52677;50.898;10.854;2023-06-26T02:17:28;98447.97;;;14.49;100.00
65897;BME280;52677;50.898;10.854;2023-06-26T02:19:28;98439.22;;;14.44;100.00
65897;BME280;52677;50.898;10.854;2023-06-26T02:21:28;98452.75;;;14.42;100.00
65897;BME280;52677;50.898;10.854;2023-06-26T02:23:29;98452.75;;;14.38;100.00
65897;BME280;52677;50.898;10.854;2023-06-26T02:25:29;98451.56;;;14.39;100.00
65897;BME280;52677;50.898;10.854;2023-06-26T02:27:29;98451.56;;;14.39;100.00
65897;BME280;52677;50.898;10.854;2023-06-26T02:29:30;98447.59;;;14.37;100.00
65897;BME280;52677;50.898;10.854;2023-06-26T02:31:30;98448.81;;;14.32;100.00
65897;BME280;52677;50.898;10.854;2023-06-26T02:33:30;98454.38;;;14.28;100.00
65897;BME280;52677;50.898;10.854;2023-06-26T02:35:30;98450.81;;;14.28;100.00
65897;BME280;52677;50.898;10.854;2023-06-26T02:37:33;98444.84;;;14.33;100.00
65897;BME280;52677;50.898;10.854;2023-06-26T02:39:34;98439.69;;;14.31;100.00
65897;BME280;52677;50.898;10.854;2023-06-26T02:41:34;98441.66;;;14.31;100.00
65897;BME280;52677;50.898;10.854;2023-06-26T02:43:34;98448.41;;;14.30;100.00
65897;BME280;52677;50.898;10.854;2023-06-26T02:45:35;98445.66;;;14.26;100.00
65897;BME280;52677;50.898;10.854;2023-06-26T02:47:35;98440.91;;;14.23;100.00
65897;BME280;52677;50.898;10.854;2023-06-26T02:49:39;98438.13;;;14.20;100.00
65897;BME280;52677;50.898;10.854;2023-06-26T02:51:39;98437.75;;;14.18;100.00
65897;BME280;52677;50.898;10.854;2023-06-26T02:53:40;98436.94;;;14.17;100.00
65897;BME280;52677;50.898;10.854;2023-06-26T02:55:40;98434.97;;;14.18;100.00
65897;BME280;52677;50.898;10.854;2023-06-26T02:57:40;98430.94;;;14.22;100.00
65897;BME280;52677;50.898;10.854;2023-06-26T02:59:40;98431.72;;;14.30;100.00
65897;BME280;52677;50.898;10.854;2023-06-26T03:01:41;98427.72;;;14.31;100.00
65897;BME280;52677;50.898;10.854;2023-06-26T03:03:41;98419.78;;;14.33;100.00
65897;BME280;52677;50.898;10.854;2023-06-26T03:05:41;98415.81;;;14.34;100.00
65897;BME280;52677;50.898;10.854;2023-06-26T03:07:42;98423.78;;;14.32;100.00
65897;BME280;52677;50.898;10.854;2023-06-26T03:09:42;98438.50;;;14.25;100.00
65897;BME280;52677;50.898;10.854;2023-06-26T03:11:42;98437.69;;;14.28;100.00
65897;BME280;52677;50.898;10.854;2023-06-26T03:13:43;98432.53;;;14.27;100.00
65897;BME280;52677;50.898;10.854;2023-06-26T03:15:43;98419.00;;;14.29;100.00
65897;BME280;52677;50.898;10.854;2023-06-26T03:17:43;98427.72;;;14.34;100.00
65897;BME280;52677;50.898;10.854;2023-06-26T03:19:44;98430.13;;;14.32;100.00
65897;BME280;52677;50.898;10.854;2023-06-26T03:21:45;98430.50;;;14.31;100.00
65897;BME280;52677;50.898;10.854;2023-06-26T03:23:45;98437.28;;;14.30;100.00
65897;BME280;52677;50.898;10.854;2023-06-26T03:25:46;98424.56;;;14.29;100.00
65897;BME280;52677;50.898;10.854;2023-06-26T03:27:46;98428.56;;;14.31;100.00
65897;BME280;52677;50.898;10.854;2023-06-26T03:29:46;98423.81;;;14.25;100.00
65897;BME280;52677;50.898;10.854;2023-06-26T03:31:47;98414.28;;;14.19;100.00
65897;BME280;52677;50.898;10.854;2023-06-26T03:33:47;98419.81;;;14.22;100.00
65897;BME280;52677;50.898;10.854;2023-06-26T03:35:47;98412.25;;;14.26;100.00
65897;BME280;52677;50.898;10.854;2023-06-26T03:37:49;98417.03;;;14.26;100.00
65897;BME280;52677;50.898;10.854;2023-06-26T03:39:49;98413.88;;;14.24;100.00
65897;BME280;52677;50.898;10.854;2023-06-26T03:41:49;98417.88;;;14.16;100.00
65897;BME280;52677;50.898;10.854;2023-06-26T03:43:50;98415.09;;;14.12;100.00
65897;BME280;52677;50.898;10.854;2023-06-26T03:45:50;98418.69;;;14.09;100.00
65897;BME280;52677;50.898;10.854;2023-06-26T03:47:50;98419.88;;;14.08;100.00
65897;BME280;52677;50.898;10.854;2023-06-26T03:49:51;98418.69;;;14.09;100.00
65897;BME280;52677;50.898;10.854;2023-06-26T03:51:51;98414.31;;;14.12;100.00
65897;BME280;52677;50.898;10.854;2023-06-26T03:53:51;98412.28;;;14.19;100.00
65897;BME280;52677;50.898;10.854;2023-06-26T03:55:51;98416.25;;;14.25;100.00
65897;BME280;52677;50.898;10.854;2023-06-26T03:57:52;98407.88;;;14.32;100.00
65897;BME280;52677;50.898;10.854;2023-06-26T03:59:52;98406.22;;;14.39;100.00
65897;BME280;52677;50.898;10.854;2023-06-26T04:01:53;98405.03;;;14.43;100.00
65897;BME280;52677;50.898;10.854;2023-06-26T04:03:54;98413.75;;;14.52;100.00
65897;BME280;52677;50.898;10.854;2023-06-26T04:05:54;98416.53;;;14.52;100.00
65897;BME280;52677;50.898;10.854;2023-06-26T04:07:54;98408.56;;;14.58;100.00
65897;BME280;52677;50.898;10.854;2023-06-26T04:09:55;98414.09;;;14.61;100.00
65897;BME280;52677;50.898;10.854;2023-06-26T04:11:55;98410.53;;;14.65;100.00
65897;BME280;52677;50.898;10.854;2023-06-26T04:13:55;98410.47;;;14.68;100.00
65897;BME280;52677;50.898;10.854;2023-06-26T04:15:56;98421.22;;;14.73;100.00
65897;BME280;52677;50.898;10.854;2023-06-26T04:17:56;98411.63;;;14.78;100.00
65897;BME280;52677;50.898;10.854;2023-06-26T04:19:56;98413.19;;;14.82;100.00
65897;BME280;52677;50.898;10.854;2023-06-26T04:21:57;98415.94;;;14.89;100.00
65897;BME280;52677;50.898;10.854;2023-06-26T04:23:57;98406.34;;;14.94;100.00
65897;BME280;52677;50.898;10.854;2023-06-26T04:25:58;98409.84;;;15.02;100.00
65897;BME280;52677;50.898;10.854;2023-06-26T04:27:58;98417.75;;;15.10;100.00
65897;BME280;52677;50.898;10.854;2023-06-26T04:29:59;98414.13;;;15.17;100.00
65897;BME280;52677;50.898;10.854;2023-06-26T04:31:59;98406.13;;;15.23;100.00
65897;BME280;52677;50.898;10.854;2023-06-26T04:33:59;98405.25;;;15.29;100.00
65897;BME280;52677;50.898;10.854;2023-06-26T04:36:00;98407.56;;;15.38;100.00
65897;BME280;52677;50.898;10.854;2023-06-26T04:38:03;98400.34;;;15.48;100.00
65897;BME280;52677;50.898;10.854;2023-06-26T04:40:05;98404.22;;;15.57;100.00
65897;BME280;52677;50.898;10.854;2023-06-26T04:42:07;98401.34;;;15.68;100.00
65897;BME280;52677;50.898;10.854;2023-06-26T04:44:07;98400.81;;;15.80;100.00
65897;BME280;52677;50.898;10.854;2023-06-26T04:46:08;98396.34;;;15.90;100.00
65897;BME280;52677;50.898;10.854;2023-06-26T04:48:08;98402.16;;;16.02;100.00
65897;BME280;52677;50.898;10.854;2023-06-26T04:50:09;98400.06;;;16.14;100.00
65897;BME280;52677;50.898;10.854;2023-06-26T04:52:09;98401.91;;;16.24;100.00
65897;BME280;52677;50.898;10.854;2023-06-26T04:54:10;98398.63;;;16.33;100.00
65897;BME280;52677;50.898;10.854;2023-06-26T04:56:11;98390.53;;;16.42;100.00
65897;BME280;52677;50.898;10.854;2023-06-26T04:58:11;98396.38;;;16.51;100.00
65897;BME280;52677;50.898;10.854;2023-06-26T05:00:12;98389.84;;;16.61;100.00
65897;BME280;52677;50.898;10.854;2023-06-26T05:02:12;98381.75;;;16.70;100.00
65897;BME280;52677;50.898;10.854;2023-06-26T05:04:15;98393.16;;;16.83;100.00
65897;BME280;52677;50.898;10.854;2023-06-26T05:06:16;98391.06;;;16.91;100.00
65897;BME280;52677;50.898;10.854;2023-06-26T05:08:24;98386.88;;;17.02;100.00
65897;BME280;52677;50.898;10.854;2023-06-26T05:10:26;98383.97;;;17.09;100.00
65897;BME280;52677;50.898;10.854;2023-06-26T05:12:26;98382.19;;;17.19;100.00
65897;BME280;52677;50.898;10.854;2023-06-26T05:14:26;98380.88;;;17.27;100.00
65897;BME280;52677;50.898;10.854;2023-06-26T05:16:27;98381.09;;;17.36;100.00
65897;BME280;52677;50.898;10.854;2023-06-26T05:18:27;98375.41;;;17.44;100.00
65897;BME280;52677;50.898;10.854;2023-06-26T05:20:27;98372.81;;;17.53;100.00
65897;BME280;52677;50.898;10.854;2023-06-26T05:22:28;98379.09;;;17.60;100.00
65897;BME280;52677;50.898;10.854;2023-06-26T05:24:30;98378.94;;;17.71;100.00
65897;BME280;52677;50.898;10.854;2023-06-26T05:26:30;98374.78;;;17.79;100.00
65897;BME280;52677;50.898;10.854;2023-06-26T05:28:31;98380.22;;;17.86;100.00
65897;BME280;52677;50.898;10.854;2023-06-26T05:30:32;98381.66;;;17.94;100.00
65897;BME280;52677;50.898;10.854;2023-06-26T05:32:35;98370.34;;;18.02;100.00
65897;BME280;52677;50.898;10.854;2023-06-26T05:34:38;98368.97;;;18.10;100.00
65897;BME280;52677;50.898;10.854;2023-06-26T05:36:41;98374.44;;;18.17;100.00
65897;BME280;52677;50.898;10.854;2023-06-26T05:38:42;98372.28;;;18.24;100.00
65897;BME280;52677;50.898;10.854;2023-06-26T05:40:43;98376.06;;;18.34;100.00
65897;BME280;52677;50.898;10.854;2023-06-26T05:42:43;98369.09;;;18.42;100.00
65897;BME280;52677;50.898;10.854;2023-06-26T05:44:44;98362.53;;;18.49;100.00
65897;BME280;52677;50.898;10.854;2023-06-26T05:46:45;98362.75;;;18.58;100.00
65897;BME280;52677;50.898;10.854;2023-06-26T05:48:46;98357.41;;;18.64;100.00
65897;BME280;52677;50.898;10.854;2023-06-26T05:50:47;98368.50;;;18.71;100.00
65897;BME280;52677;50.898;10.854;2023-06-26T05:52:48;98361.91;;;18.77;100.00
65897;BME280;52677;50.898;10.854;2023-06-26T05:54:49;98360.19;;;18.84;100.00
65897;BME280;52677;50.898;10.854;2023-06-26T05:56:52;98360.00;;;18.91;100.00
65897;BME280;52677;50.898;10.854;2023-06-26T05:58:56;98368.59;;;19.00;100.00
65897;BME280;52677;50.898;10.854;2023-06-26T06:00:57;98362.47;;;19.05;100.00
65897;BME280;52677;50.898;10.854;2023-06-26T06:02:57;98363.88;;;19.13;100.00
65897;BME280;52677;50.898;10.854;2023-06-26T06:04:58;98362.56;;;19.18;100.00
65897;BME280;52677;50.898;10.854;2023-06-26T06:06:58;98358.34;;;19.26;100.00
65897;BME280;52677;50.898;10.854;2023-06-26T06:08:58;98370.97;;;19.34;100.00
65897;BME280;52677;50.898;10.854;2023-06-26T06:10:59;98366.75;;;19.42;100.00
65897;BME280;52677;50.898;10.854;2023-06-26T06:13:00;98366.13;;;19.51;100.00
65897;BME280;52677;50.898;10.854;2023-06-26T06:15:00;98363.94;;;19.58;100.00
65897;BME280;52677;50.898;10.854;2023-06-26T06:17:01;98363.75;;;19.66;100.00
65897;BME280;52677;50.898;10.854;2023-06-26T06:19:01;98358.84;;;19.70;100.00
65897;BME280;52677;50.898;10.854;2023-06-26T06:21:03;98353.03;;;19.77;100.00
65897;BME280;52677;50.898;10.854;2023-06-26T06:23:03;98355.63;;;19.84;100.00
65897;BME280;52677;50.898;10.854;2023-06-26T06:25:04;98353.75;;;19.93;100.00
65897;BME280;52677;50.898;10.854;2023-06-26T06:27:04;98354.81;;;20.00;100.00
65897;BME280;52677;50.898;10.854;2023-06-26T06:29:05;98347.88;;;20.04;100.00
65897;BME280;52677;50.898;10.854;2023-06-26T06:31:06;98352.03;;;20.12;100.00
65897;BME280;52677;50.898;10.854;2023-06-26T06:33:06;98348.25;;;20.19;100.00
65897;BME280;52677;50.898;10.854;2023-06-26T06:35:07;98358.81;;;20.28;100.00
65897;BME280;52677;50.898;10.854;2023-06-26T06:37:10;98347.47;;;20.31;100.00
65897;BME280;52677;50.898;10.854;2023-06-26T06:39:10;98353.66;;;20.39;100.00
65897;BME280;52677;50.898;10.854;2023-06-26T06:41:10;98351.00;;;20.48;100.00
65897;BME280;52677;50.898;10.854;2023-06-26T06:43:11;98350.66;;;20.59;100.00
65897;BME280;52677;50.898;10.854;2023-06-26T06:45:11;98347.97;;;20.68;100.00
65897;BME280;52677;50.898;10.854;2023-06-26T06:47:11;98350.47;;;20.79;100.00
65897;BME280;52677;50.898;10.854;2023-06-26T06:49:12;98342.59;;;20.86;100.00
65897;BME280;52677;50.898;10.854;2023-06-26T06:51:12;98348.31;;;20.95;100.00
65897;BME280;52677;50.898;10.854;2023-06-26T06:53:12;98347.84;;;21.10;100.00
65897;BME280;52677;50.898;10.854;2023-06-26T06:55:13;98342.78;;;21.17;100.00
65897;BME280;52677;50.898;10.854;2023-06-26T06:57:14;98348.94;;;21.25;100.00
65897;BME280;52677;50.898;10.854;2023-06-26T06:59:14;98340.97;;;21.36;100.00
65897;BME280;52677;50.898;10.854;2023-06-26T07:01:14;98333.50;;;21.42;100.00
65897;BME280;52677;50.898;10.854;2023-06-26T07:03:15;98341.94;;;21.55;100.00
65897;BME280;52677;50.898;10.854;2023-06-26T07:05:16;98335.13;;;21.65;100.00
65897;BME280;52677;50.898;10.854;2023-06-26T07:07:18;98326.28;;;21.76;100.00
65897;BME280;52677;50.898;10.854;2023-06-26T07:09:19;98328.59;;;21.90;100.00
65897;BME280;52677;50.898;10.854;2023-06-26T07:11:19;98333.59;;;22.08;100.00
65897;BME280;52677;50.898;10.854;2023-06-26T07:13:19;98325.22;;;22.17;100.00
65897;BME280;52677;50.898;10.854;2023-06-26T07:15:20;98319.31;;;22.24;98.88
65897;BME280;52677;50.898;10.854;2023-06-26T07:17:20;98315.19;;;22.38;98.15
65897;BME280;52677;50.898;10.854;2023-06-26T07:19:21;98307.22;;;22.46;98.23
65897;BME280;52677;50.898;10.854;2023-06-26T07:21:21;98316.81;;;22.57;99.43
65897;BME280;52677;50.898;10.854;2023-06-26T07:23:22;98311.88;;;22.70;98.20
65897;BME280;52677;50.898;10.854;2023-06-26T07:25:22;98310.88;;;22.86;98.43
65897;BME280;52677;50.898;10.854;2023-06-26T07:27:22;98316.84;;;22.97;97.15
65897;BME280;52677;50.898;10.854;2023-06-26T07:29:23;98309.84;;;23.11;98.68
65897;BME280;52677;50.898;10.854;2023-06-26T07:31:23;98312.69;;;23.30;94.56
65897;BME280;52677;50.898;10.854;2023-06-26T07:33:24;98312.22;;;23.40;93.83
65897;BME280;52677;50.898;10.854;2023-06-26T07:35:24;98307.84;;;23.48;92.59
65897;BME280;52677;50.898;10.854;2023-06-26T07:37:27;98307.25;;;23.63;89.07
65897;BME280;52677;50.898;10.854;2023-06-26T07:39:27;98308.22;;;23.78;87.45
65897;BME280;52677;50.898;10.854;2023-06-26T07:41:28;98305.97;;;23.91;85.57
65897;BME280;52677;50.898;10.854;2023-06-26T07:43:30;98316.94;;;24.07;86.02
65897;BME280;52677;50.898;10.854;2023-06-26T07:45:31;98306.41;;;24.35;79.45
65897;BME280;52677;50.898;10.854;2023-06-26T07:47:31;98309.16;;;24.63;79.24
65897;BME280;52677;50.898;10.854;2023-06-26T07:49:31;98307.63;;;24.86;76.59
65897;BME280;52677;50.898;10.854;2023-06-26T07:51:32;98303.78;;;25.07;76.17
65897;BME280;52677;50.898;10.854;2023-06-26T07:53:32;98303.06;;;25.21;77.14
65897;BME280;52677;50.898;10.854;2023-06-26T07:55:32;98299.81;;;25.38;72.55
65897;BME280;52677;50.898;10.854;2023-06-26T07:57:33;98297.16;;;25.58;69.70
65897;BME280;52677;50.898;10.854;2023-06-26T07:59:33;98295.78;;;25.68;69.81
65897;BME280;52677;50.898;10.854;2023-06-26T08:01:33;98291.53;;;25.73;71.32
65897;BME280;52677;50.898;10.854;2023-06-26T08:03:34;98293.50;;;25.82;70.43
65897;BME280;52677;50.898;10.854;2023-06-26T08:05:35;98284.16;;;25.90;68.69
65897;BME280;52677;50.898;10.854;2023-06-26T08:07:35;98283.28;;;25.99;69.46
65897;BME280;52677;50.898;10.854;2023-06-26T08:09:35;98292.47;;;26.09;67.01
65897;BME280;52677;50.898;10.854;2023-06-26T08:11:36;98288.47;;;26.15;65.64
65897;BME280;52677;50.898;10.854;2023-06-26T08:13:36;98280.53;;;26.19;66.02
65897;BME280;52677;50.898;10.854;2023-06-26T08:15:36;98276.25;;;26.24;64.79
65897;BME280;52677;50.898;10.854;2023-06-26T08:17:37;98286.38;;;26.30;64.73
65897;BME280;52677;50.898;10.854;2023-06-26T08:19:38;98278.19;;;26.32;65.59
65897;BME280;52677;50.898;10.854;2023-06-26T08:21:43;98274.19;;;26.24;65.98
65897;BME280;52677;50.898;10.854;2023-06-26T08:23:44;98281.50;;;26.31;63.00
65897;BME280;52677;50.898;10.854;2023-06-26T08:25:44;98275.53;;;26.29;64.94
65897;BME280;52677;50.898;10.854;2023-06-26T08:27:44;98271.94;;;26.28;66.70
65897;BME280;52677;50.898;10.854;2023-06-26T08:29:45;98277.03;;;26.39;65.54
65897;BME280;52677;50.898;10.854;2023-06-26T08:31:45;98275.44;;;26.53;64.08
65897;BME280;52677;50.898;10.854;2023-06-26T08:33:46;98273.88;;;26.67;64.03
65897;BME280;52677;50.898;10.854;2023-06-26T08:35:46;98281.47;;;26.75;65.70
65897;BME280;52677;50.898;10.854;2023-06-26T08:37:46;98274.53;;;26.76;62.54
65897;BME280;52677;50.898;10.854;2023-06-26T08:39:48;98281.66;;;26.86;61.26
65897;BME280;52677;50.898;10.854;2023-06-26T08:41:48;98273.50;;;26.94;62.11
65897;BME280;52677;50.898;10.854;2023-06-26T08:43:49;98276.16;;;26.98;62.65
65897;BME280;52677;50.898;10.854;2023-06-26T08:45:51;98282.00;;;27.09;62.57
65897;BME280;52677;50.898;10.854;2023-06-26T08:47:55;98280.22;;;27.11;61.42
65897;BME280;52677;50.898;10.854;2023-06-26T08:50:10;98285.25;;;27.22;60.32
65897;BME280;52677;50.898;10.854;2023-06-26T08:54:46;98285.06;;;27.46;59.04
65897;BME280;52677;50.898;10.854;2023-06-26T08:56:49;98281.75;;;27.48;57.15
65897;BME280;52677;50.898;10.854;2023-06-26T08:58:50;98282.06;;;27.55;56.34
65897;BME280;52677;50.898;10.854;2023-06-26T09:00:50;98283.34;;;27.54;57.70
65897;BME280;52677;50.898;10.854;2023-06-26T09:02:51;98280.94;;;27.47;57.42
65897;BME280;52677;50.898;10.854;2023-06-26T09:04:52;98275.47;;;27.43;58.01
65897;BME280;52677;50.898;10.854;2023-06-26T09:06:52;98279.03;;;27.38;56.09
65897;BME280;52677;50.898;10.854;2023-06-26T09:08:52;98282.38;;;27.37;58.94
65897;BME280;52677;50.898;10.854;2023-06-26T09:10:53;98290.97;;;27.42;57.80
65897;BME280;52677;50.898;10.854;2023-06-26T09:12:56;98274.97;;;27.45;58.21
65897;BME280;52677;50.898;10.854;2023-06-26T09:15:01;98274.81;;;27.54;57.67
65897;BME280;52677;50.898;10.854;2023-06-26T09:17:03;98283.44;;;27.60;58.07
65897;BME280;52677;50.898;10.854;2023-06-26T09:19:03;98286.53;;;27.62;57.86
65897;BME280;52677;50.898;10.854;2023-06-26T09:21:06;98283.50;;;27.65;57.84
65897;BME280;52677;50.898;10.854;2023-06-26T09:23:07;98274.97;;;27.65;56.85
65897;BME280;52677;50.898;10.854;2023-06-26T09:25:09;98273.72;;;27.66;57.42
65897;BME280;52677;50.898;10.854;2023-06-26T09:27:10;98275.56;;;27.69;55.71
65897;BME280;52677;50.898;10.854;2023-06-26T09:29:11;98266.25;;;27.69;58.51
65897;BME280;52677;50.898;10.854;2023-06-26T09:31:13;98272.63;;;27.84;56.09
65897;BME280;52677;50.898;10.854;2023-06-26T09:33:19;98274.19;;;27.85;56.46
65897;BME280;52677;50.898;10.854;2023-06-26T09:35:20;98274.97;;;27.86;57.16
65897;BME280;52677;50.898;10.854;2023-06-26T09:37:20;98279.44;;;27.92;58.38
65897;BME280;52677;50.898;10.854;2023-06-26T09:39:20;98272.84;;;28.07;57.58
65897;BME280;52677;50.898;10.854;2023-06-26T09:41:21;98268.72;;;28.08;55.70
65897;BME280;52677;50.898;10.854;2023-06-26T09:43:21;98272.91;;;28.12;57.65
65897;BME280;52677;50.898;10.854;2023-06-26T09:45:22;98273.47;;;28.16;58.24
65897;BME280;52677;50.898;10.854;2023-06-26T09:47:23;98271.91;;;28.15;56.21
65897;BME280;52677;50.898;10.854;2023-06-26T09:49:24;98268.56;;;28.17;55.96
65897;BME280;52677;50.898;10.854;2023-06-26T09:51:26;98264.16;;;28.16;53.97
65897;BME280;52677;50.898;10.854;2023-06-26T09:53:26;98267.50;;;28.14;56.14
65897;BME280;52677;50.898;10.854;2023-06-26T09:55:26;98275.72;;;28.33;55.23
65897;BME280;52677;50.898;10.854;2023-06-26T09:57:27;98264.25;;;28.27;54.86
65897;BME280;52677;50.898;10.854;2023-06-26T09:59:27;98270.03;;;28.38;51.99
65897;BME280;52677;50.898;10.854;2023-06-26T10:01:28;98264.94;;;28.42;53.10
65897;BME280;52677;50.898;10.854;2023-06-26T10:03:29;98262.59;;;28.41;51.67
65897;BME280;52677;50.898;10.854;2023-06-26T10:05:29;98262.25;;;28.33;55.94
65897;BME280;52677;50.898;10.854;2023-06-26T10:07:29;98261.50;;;28.38;53.95
65897;BME280;52677;50.898;10.854;2023-06-26T10:09:30;98261.94;;;28.57;54.08
65897;BME280;52677;50.898;10.854;2023-06-26T10:12:03;98258.03;;;28.54;51.48
65897;BME280;52677;50.898;10.854;2023-06-26T10:14:04;98254.88;;;28.47;52.07
65897;BME280;52677;50.898;10.854;2023-06-26T10:16:07;98258.19;;;28.40;52.05
65897;BME280;52677;50.898;10.854;2023-06-26T10:18:09;98257.16;;;28.43;53.58
65897;BME280;52677;50.898;10.854;2023-06-26T10:20:10;98249.00;;;28.56;54.41
65897;BME280;52677;50.898;10.854;2023-06-26T10:22:15;98243.38;;;28.67;54.31
65897;BME280;52677;50.898;10.854;2023-06-26T10:24:17;98234.63;;;28.76;53.53
65897;BME280;52677;50.898;10.854;2023-06-26T10:26:20;98232.56;;;28.77;55.94
65897;BME280;52677;50.898;10.854;2023-06-26T10:28:22;98232.56;;;28.77;54.99
65897;BME280;52677;50.898;10.854;2023-06-26T10:30:24;98233.13;;;28.81;55.91